Terminal Aerodrome Forecast
Issued by NWS

Home | Current Version | Previous Version | Text Only | Print | Product List | Glossary On
Versions: 1 2 3 4 5 6 7 8 9 10 11 12 13 14 15 16 17 18 19 20 21 22 23 24 25 26 27
391
FTUS41 KGYX 250919 AAB
TAFLEB
TAF AMD
KLEB 250919Z 2509/2606 VRB03KT 1 1/2SM BR OVC001
      TEMPO 2509/2512 1/2SM FG OVC002
     FM251300 29007KT P6SM SCT060=

USA.gov is the U.S. government's official web portal to all federal, state and local government web resources and services.